sensor_id;sensor_type;location;lat;lon;timestamp;pressure;altitude;pressure_sealevel;temperature;humidity
62632;BME280;48703;51.248;-0.546;2022-07-06T00:02:01;102155;;;15.07;100.00
62632;BME280;48703;51.248;-0.546;2022-07-06T00:05:03;102150;;;15.01;100.00
62632;BME280;48703;51.248;-0.546;2022-07-06T00:08:04;102150;;;14.89;100.00
62632;BME280;48703;51.248;-0.546;2022-07-06T00:11:06;102145;;;14.79;100.00
62632;BME280;48703;51.248;-0.546;2022-07-06T00:14:08;102142;;;14.75;100.00
62632;BME280;48703;51.248;-0.546;2022-07-06T00:17:10;102143;;;14.69;100.00
62632;BME280;48703;51.248;-0.546;2022-07-06T00:20:12;102143;;;14.65;100.00
62632;BME280;48703;51.248;-0.546;2022-07-06T00:23:14;102150;;;14.65;100.00
62632;BME280;48703;51.248;-0.546;2022-07-06T00:26:15;102149;;;14.59;100.00
62632;BME280;48703;51.248;-0.546;2022-07-06T00:29:17;102142;;;14.48;100.00
62632;BME280;48703;51.248;-0.546;2022-07-06T00:32:19;102145;;;14.40;100.00
62632;BME280;48703;51.248;-0.546;2022-07-06T00:35:21;102154;;;14.38;100.00
62632;BME280;48703;51.248;-0.546;2022-07-06T00:38:23;102149;;;14.42;100.00
62632;BME280;48703;51.248;-0.546;2022-07-06T00:41:25;102149;;;14.41;100.00
62632;BME280;48703;51.248;-0.546;2022-07-06T00:44:27;102148;;;14.41;100.00
62632;BME280;48703;51.248;-0.546;2022-07-06T00:47:29;102143;;;14.34;100.00
62632;BME280;48703;51.248;-0.546;2022-07-06T00:50:31;102146;;;14.29;100.00
62632;BME280;48703;51.248;-0.546;2022-07-06T00:53:32;102141;;;14.24;100.00
62632;BME280;48703;51.248;-0.546;2022-07-06T00:56:34;102139;;;14.13;100.00
62632;BME280;48703;51.248;-0.546;2022-07-06T00:59:36;102130;;;14.11;100.00
62632;BME280;48703;51.248;-0.546;2022-07-06T01:02:38;102131;;;14.08;100.00
62632;BME280;48703;51.248;-0.546;2022-07-06T01:05:41;102133;;;14.02;100.00
62632;BME280;48703;51.248;-0.546;2022-07-06T01:08:42;102138;;;13.97;100.00
62632;BME280;48703;51.248;-0.546;2022-07-06T01:11:44;102136;;;13.93;100.00
62632;BME280;48703;51.248;-0.546;2022-07-06T01:14:46;102144;;;13.85;100.00
62632;BME280;48703;51.248;-0.546;2022-07-06T01:17:48;102151;;;13.75;100.00
62632;BME280;48703;51.248;-0.546;2022-07-06T01:20:50;102151;;;13.71;100.00
62632;BME280;48703;51.248;-0.546;2022-07-06T01:23:51;102147;;;13.67;100.00
62632;BME280;48703;51.248;-0.546;2022-07-06T01:26:53;102145;;;13.61;100.00
62632;BME280;48703;51.248;-0.546;2022-07-06T01:29:55;102145;;;13.49;100.00
62632;BME280;48703;51.248;-0.546;2022-07-06T01:32:57;102142;;;13.44;100.00
62632;BME280;48703;51.248;-0.546;2022-07-06T01:35:59;102145;;;13.39;100.00
62632;BME280;48703;51.248;-0.546;2022-07-06T01:39:01;102144;;;13.36;100.00
62632;BME280;48703;51.248;-0.546;2022-07-06T01:42:03;102146;;;13.30;100.00
62632;BME280;48703;51.248;-0.546;2022-07-06T01:45:05;102151;;;13.23;100.00
62632;BME280;48703;51.248;-0.546;2022-07-06T01:48:07;102149;;;13.20;100.00
62632;BME280;48703;51.248;-0.546;2022-07-06T01:51:09;102150;;;13.12;100.00
62632;BME280;48703;51.248;-0.546;2022-07-06T01:54:11;102149;;;13.01;100.00
62632;BME280;48703;51.248;-0.546;2022-07-06T01:57:12;102156;;;12.94;100.00
62632;BME280;48703;51.248;-0.546;2022-07-06T02:00:15;102153;;;12.85;100.00
62632;BME280;48703;51.248;-0.546;2022-07-06T02:03:16;102154;;;12.80;100.00
62632;BME280;48703;51.248;-0.546;2022-07-06T02:06:19;102154;;;12.77;100.00
62632;BME280;48703;51.248;-0.546;2022-07-06T02:09:20;102153;;;12.74;100.00
62632;BME280;48703;51.248;-0.546;2022-07-06T02:12:22;102148;;;12.73;100.00
62632;BME280;48703;51.248;-0.546;2022-07-06T02:15:24;102151;;;12.69;100.00
62632;BME280;48703;51.248;-0.546;2022-07-06T02:18:26;102148;;;12.69;100.00
62632;BME280;48703;51.248;-0.546;2022-07-06T02:21:28;102149;;;12.67;100.00
62632;BME280;48703;51.248;-0.546;2022-07-06T02:24:29;102153;;;12.59;100.00
62632;BME280;48703;51.248;-0.546;2022-07-06T02:27:31;102154;;;12.54;100.00
62632;BME280;48703;51.248;-0.546;2022-07-06T02:30:33;102154;;;12.56;100.00
62632;BME280;48703;51.248;-0.546;2022-07-06T02:33:35;102154;;;12.57;100.00
62632;BME280;48703;51.248;-0.546;2022-07-06T02:36:37;102159;;;12.53;100.00
62632;BME280;48703;51.248;-0.546;2022-07-06T02:39:39;102161;;;12.47;100.00
62632;BME280;48703;51.248;-0.546;2022-07-06T02:42:41;102159;;;12.45;100.00
62632;BME280;48703;51.248;-0.546;2022-07-06T02:45:43;102156;;;12.45;100.00
62632;BME280;48703;51.248;-0.546;2022-07-06T02:48:45;102156;;;12.42;100.00
62632;BME280;48703;51.248;-0.546;2022-07-06T02:51:47;102153;;;12.42;100.00
62632;BME280;48703;51.248;-0.546;2022-07-06T02:54:49;102152;;;12.41;100.00
62632;BME280;48703;51.248;-0.546;2022-07-06T02:57:50;102153;;;12.39;100.00
62632;BME280;48703;51.248;-0.546;2022-07-06T03:00:52;102154;;;12.33;100.00
62632;BME280;48703;51.248;-0.546;2022-07-06T03:03:54;102151;;;12.29;100.00
62632;BME280;48703;51.248;-0.546;2022-07-06T03:06:56;102149;;;12.30;100.00
62632;BME280;48703;51.248;-0.546;2022-07-06T03:09:58;102149;;;12.30;100.00
62632;BME280;48703;51.248;-0.546;2022-07-06T03:13:00;102156;;;12.26;100.00
62632;BME280;48703;51.248;-0.546;2022-07-06T03:16:02;102156;;;12.27;100.00
62632;BME280;48703;51.248;-0.546;2022-07-06T03:19:04;102157;;;12.25;100.00
62632;BME280;48703;51.248;-0.546;2022-07-06T03:22:06;102151;;;12.27;100.00
62632;BME280;48703;51.248;-0.546;2022-07-06T03:25:08;102151;;;12.27;100.00
62632;BME280;48703;51.248;-0.546;2022-07-06T03:28:09;102146;;;12.27;100.00
62632;BME280;48703;51.248;-0.546;2022-07-06T03:31:11;102142;;;12.27;100.00
62632;BME280;48703;51.248;-0.546;2022-07-06T03:34:13;102143;;;12.24;100.00
62632;BME280;48703;51.248;-0.546;2022-07-06T03:37:15;102141;;;12.20;100.00
62632;BME280;48703;51.248;-0.546;2022-07-06T03:40:17;102139;;;12.16;100.00
62632;BME280;48703;51.248;-0.546;2022-07-06T03:43:19;102138;;;12.16;100.00
62632;BME280;48703;51.248;-0.546;2022-07-06T03:46:21;102137;;;12.15;100.00
62632;BME280;48703;51.248;-0.546;2022-07-06T03:49:23;102139;;;12.13;100.00
62632;BME280;48703;51.248;-0.546;2022-07-06T03:52:25;102141;;;12.09;100.00
62632;BME280;48703;51.248;-0.546;2022-07-06T03:55:27;102143;;;12.09;100.00
62632;BME280;48703;51.248;-0.546;2022-07-06T03:58:28;102149;;;12.05;100.00
62632;BME280;48703;51.248;-0.546;2022-07-06T04:01:30;102155;;;12.03;100.00
62632;BME280;48703;51.248;-0.546;2022-07-06T04:04:33;102155;;;12.04;100.00
62632;BME280;48703;51.248;-0.546;2022-07-06T04:07:34;102149;;;12.05;100.00
62632;BME280;48703;51.248;-0.546;2022-07-06T04:10:36;102140;;;12.08;100.00
62632;BME280;48703;51.248;-0.546;2022-07-06T04:13:38;102138;;;12.10;100.00
62632;BME280;48703;51.248;-0.546;2022-07-06T04:16:40;102140;;;12.12;100.00
62632;BME280;48703;51.248;-0.546;2022-07-06T04:19:42;102139;;;12.15;100.00
62632;BME280;48703;51.248;-0.546;2022-07-06T04:22:44;102137;;;12.22;100.00
62632;BME280;48703;51.248;-0.546;2022-07-06T04:25:46;102133;;;12.28;100.00
62632;BME280;48703;51.248;-0.546;2022-07-06T04:28:48;102132;;;12.34;100.00
62632;BME280;48703;51.248;-0.546;2022-07-06T04:31:49;102138;;;12.38;100.00
62632;BME280;48703;51.248;-0.546;2022-07-06T04:34:51;102134;;;12.41;100.00
62632;BME280;48703;51.248;-0.546;2022-07-06T04:37:53;102135;;;12.49;100.00
62632;BME280;48703;51.248;-0.546;2022-07-06T04:40:55;102136;;;12.56;100.00
62632;BME280;48703;51.248;-0.546;2022-07-06T04:43:57;102139;;;12.61;100.00
62632;BME280;48703;51.248;-0.546;2022-07-06T04:46:59;102142;;;12.65;100.00
62632;BME280;48703;51.248;-0.546;2022-07-06T04:50:01;102141;;;12.70;100.00
62632;BME280;48703;51.248;-0.546;2022-07-06T04:53:03;102136;;;12.74;100.00
62632;BME280;48703;51.248;-0.546;2022-07-06T04:56:05;102136;;;12.79;100.00
62632;BME280;48703;51.248;-0.546;2022-07-06T04:59:07;102147;;;12.83;100.00
62632;BME280;48703;51.248;-0.546;2022-07-06T05:02:08;102150;;;12.89;100.00
62632;BME280;48703;51.248;-0.546;2022-07-06T05:05:10;102149;;;12.95;100.00
62632;BME280;48703;51.248;-0.546;2022-07-06T05:08:12;102151;;;13.01;100.00
62632;BME280;48703;51.248;-0.546;2022-07-06T05:11:14;102153;;;13.07;100.00
62632;BME280;48703;51.248;-0.546;2022-07-06T05:14:16;102153;;;13.13;100.00
62632;BME280;48703;51.248;-0.546;2022-07-06T05:17:18;102152;;;13.17;100.00
62632;BME280;48703;51.248;-0.546;2022-07-06T05:20:20;102153;;;13.22;100.00
62632;BME280;48703;51.248;-0.546;2022-07-06T05:23:22;102152;;;13.26;100.00
62632;BME280;48703;51.248;-0.546;2022-07-06T05:26:24;102151;;;13.31;100.00
62632;BME280;48703;51.248;-0.546;2022-07-06T05:29:25;102150;;;13.35;100.00
62632;BME280;48703;51.248;-0.546;2022-07-06T05:32:27;102148;;;13.39;100.00
62632;BME280;48703;51.248;-0.546;2022-07-06T05:35:29;102146;;;13.45;100.00
62632;BME280;48703;51.248;-0.546;2022-07-06T05:38:31;102146;;;13.51;100.00
62632;BME280;48703;51.248;-0.546;2022-07-06T05:41:33;102146;;;13.57;100.00
62632;BME280;48703;51.248;-0.546;2022-07-06T05:44:35;102148;;;13.62;100.00
62632;BME280;48703;51.248;-0.546;2022-07-06T05:47:37;102155;;;13.68;100.00
62632;BME280;48703;51.248;-0.546;2022-07-06T05:50:39;102155;;;13.74;100.00
62632;BME280;48703;51.248;-0.546;2022-07-06T05:53:41;102154;;;13.79;100.00
62632;BME280;48703;51.248;-0.546;2022-07-06T05:56:43;102152;;;13.86;100.00
62632;BME280;48703;51.248;-0.546;2022-07-06T05:59:45;102154;;;13.91;100.00
62632;BME280;48703;51.248;-0.546;2022-07-06T06:02:46;102151;;;13.97;100.00
62632;BME280;48703;51.248;-0.546;2022-07-06T06:05:48;102150;;;14.01;100.00
62632;BME280;48703;51.248;-0.546;2022-07-06T06:08:50;102149;;;14.06;100.00
62632;BME280;48703;51.248;-0.546;2022-07-06T06:11:52;102148;;;14.09;100.00
62632;BME280;48703;51.248;-0.546;2022-07-06T06:14:54;102139;;;14.11;100.00
62632;BME280;48703;51.248;-0.546;2022-07-06T06:17:56;102140;;;14.14;100.00
62632;BME280;48703;51.248;-0.546;2022-07-06T06:20:58;102148;;;14.16;100.00
62632;BME280;48703;51.248;-0.546;2022-07-06T06:24:00;102154;;;14.18;100.00
62632;BME280;48703;51.248;-0.546;2022-07-06T06:27:02;102161;;;14.22;100.00
62632;BME280;48703;51.248;-0.546;2022-07-06T06:30:04;102157;;;14.28;100.00
62632;BME280;48703;51.248;-0.546;2022-07-06T06:33:06;102164;;;14.32;100.00
62632;BME280;48703;51.248;-0.546;2022-07-06T06:36:08;102168;;;14.36;100.00
62632;BME280;48703;51.248;-0.546;2022-07-06T06:39:09;102173;;;14.39;100.00
62632;BME280;48703;51.248;-0.546;2022-07-06T06:42:11;102174;;;14.44;100.00
62632;BME280;48703;51.248;-0.546;2022-07-06T06:45:13;102183;;;14.51;100.00
62632;BME280;48703;51.248;-0.546;2022-07-06T06:48:15;102187;;;14.56;100.00
62632;BME280;48703;51.248;-0.546;2022-07-06T06:51:17;102183;;;14.66;100.00
62632;BME280;48703;51.248;-0.546;2022-07-06T06:54:19;102187;;;14.79;100.00
62632;BME280;48703;51.248;-0.546;2022-07-06T06:57:21;102184;;;14.91;100.00
62632;BME280;48703;51.248;-0.546;2022-07-06T07:00:23;102188;;;15.02;100.00
62632;BME280;48703;51.248;-0.546;2022-07-06T07:03:25;102185;;;15.13;100.00
62632;BME280;48703;51.248;-0.546;2022-07-06T07:06:26;102187;;;15.25;100.00
62632;BME280;48703;51.248;-0.546;2022-07-06T07:09:28;102187;;;15.36;100.00
62632;BME280;48703;51.248;-0.546;2022-07-06T07:12:30;102187;;;15.45;100.00
62632;BME280;48703;51.248;-0.546;2022-07-06T07:15:32;102182;;;15.54;100.00
62632;BME280;48703;51.248;-0.546;2022-07-06T07:18:34;102180;;;15.61;100.00
62632;BME280;48703;51.248;-0.546;2022-07-06T07:21:36;102182;;;15.69;100.00
62632;BME280;48703;51.248;-0.546;2022-07-06T07:24:38;102186;;;15.77;100.00
62632;BME280;48703;51.248;-0.546;2022-07-06T07:27:40;102182;;;15.85;100.00
62632;BME280;48703;51.248;-0.546;2022-07-06T07:30:42;102180;;;15.95;100.00
62632;BME280;48703;51.248;-0.546;2022-07-06T07:33:44;102184;;;16.06;100.00
62632;BME280;48703;51.248;-0.546;2022-07-06T07:36:45;102192;;;16.15;100.00
62632;BME280;48703;51.248;-0.546;2022-07-06T07:39:47;102198;;;16.20;100.00
62632;BME280;48703;51.248;-0.546;2022-07-06T07:42:49;102199;;;16.25;100.00
62632;BME280;48703;51.248;-0.546;2022-07-06T07:45:51;102198;;;16.30;100.00
62632;BME280;48703;51.248;-0.546;2022-07-06T07:48:53;102190;;;16.34;100.00
62632;BME280;48703;51.248;-0.546;2022-07-06T07:51:55;102181;;;16.37;100.00
62632;BME280;48703;51.248;-0.546;2022-07-06T07:54:57;102175;;;16.44;100.00
62632;BME280;48703;51.248;-0.546;2022-07-06T07:57:59;102175;;;16.58;100.00
62632;BME280;48703;51.248;-0.546;2022-07-06T08:01:01;102174;;;16.69;100.00
62632;BME280;48703;51.248;-0.546;2022-07-06T08:04:03;102174;;;16.77;100.00
62632;BME280;48703;51.248;-0.546;2022-07-06T08:07:05;102176;;;16.87;100.00
62632;BME280;48703;51.248;-0.546;2022-07-06T08:10:07;102183;;;16.95;100.00
62632;BME280;48703;51.248;-0.546;2022-07-06T08:13:08;102180;;;17.01;100.00
62632;BME280;48703;51.248;-0.546;2022-07-06T08:16:10;102176;;;17.09;100.00
62632;BME280;48703;51.248;-0.546;2022-07-06T08:19:12;102169;;;17.17;100.00
62632;BME280;48703;51.248;-0.546;2022-07-06T08:22:14;102168;;;17.26;100.00
62632;BME280;48703;51.248;-0.546;2022-07-06T08:25:16;102168;;;17.35;100.00
62632;BME280;48703;51.248;-0.546;2022-07-06T08:28:18;102170;;;17.40;100.00
62632;BME280;48703;51.248;-0.546;2022-07-06T08:31:20;102166;;;17.46;100.00
62632;BME280;48703;51.248;-0.546;2022-07-06T08:34:22;102161;;;17.56;100.00
62632;BME280;48703;51.248;-0.546;2022-07-06T08:37:24;102159;;;17.63;100.00
62632;BME280;48703;51.248;-0.546;2022-07-06T08:40:26;102152;;;17.70;100.00
62632;BME280;48703;51.248;-0.546;2022-07-06T08:43:27;102140;;;17.79;100.00
62632;BME280;48703;51.248;-0.546;2022-07-06T08:46:29;102142;;;17.90;100.00
62632;BME280;48703;51.248;-0.546;2022-07-06T08:49:31;102140;;;17.95;100.00
62632;BME280;48703;51.248;-0.546;2022-07-06T08:52:33;102137;;;18.06;100.00
62632;BME280;48703;51.248;-0.546;2022-07-06T08:55:35;102138;;;18.14;100.00
62632;BME280;48703;51.248;-0.546;2022-07-06T08:58:37;102144;;;18.20;100.00
62632;BME280;48703;51.248;-0.546;2022-07-06T09:01:39;102138;;;18.26;100.00
62632;BME280;48703;51.248;-0.546;2022-07-06T09:04:41;102137;;;18.35;100.00
62632;BME280;48703;51.248;-0.546;2022-07-06T09:07:43;102134;;;18.42;100.00
62632;BME280;48703;51.248;-0.546;2022-07-06T09:10:44;102138;;;18.49;100.00
62632;BME280;48703;51.248;-0.546;2022-07-06T09:13:46;102137;;;18.49;100.00
62632;BME280;48703;51.248;-0.546;2022-07-06T09:16:51;102138;;;18.50;100.00
62632;BME280;48703;51.248;-0.546;2022-07-06T09:19:50;102136;;;18.50;100.00
62632;BME280;48703;51.248;-0.546;2022-07-06T09:22:56;102134;;;18.53;100.00
62632;BME280;48703;51.248;-0.546;2022-07-06T09:25:54;102141;;;18.56;100.00
62632;BME280;48703;51.248;-0.546;2022-07-06T09:28:56;102139;;;18.58;100.00
62632;BME280;48703;51.248;-0.546;2022-07-06T09:31:58;102140;;;18.64;100.00
62632;BME280;48703;51.248;-0.546;2022-07-06T09:35:00;102139;;;18.73;100.00
62632;BME280;48703;51.248;-0.546;2022-07-06T09:38:02;102135;;;18.80;100.00
62632;BME280;48703;51.248;-0.546;2022-07-06T09:41:03;102136;;;18.92;100.00
62632;BME280;48703;51.248;-0.546;2022-07-06T09:44:05;102136;;;19.02;100.00
62632;BME280;48703;51.248;-0.546;2022-07-06T09:47:08;102135;;;19.10;100.00
62632;BME280;48703;51.248;-0.546;2022-07-06T09:50:09;102134;;;19.20;100.00
62632;BME280;48703;51.248;-0.546;2022-07-06T09:53:11;102135;;;19.28;100.00
62632;BME280;48703;51.248;-0.546;2022-07-06T09:56:13;102134;;;19.36;99.69
62632;BME280;48703;51.248;-0.546;2022-07-06T09:59:16;102134;;;19.40;99.08
62632;BME280;48703;51.248;-0.546;2022-07-06T10:02:17;102132;;;19.47;99.82
62632;BME280;48703;51.248;-0.546;2022-07-06T10:05:19;102129;;;19.51;98.12
62632;BME280;48703;51.248;-0.546;2022-07-06T10:08:21;102138;;;19.56;98.50
62632;BME280;48703;51.248;-0.546;2022-07-06T10:11:23;102137;;;19.60;97.48
62632;BME280;48703;51.248;-0.546;2022-07-06T10:14:25;102132;;;19.70;97.63
62632;BME280;48703;51.248;-0.546;2022-07-06T10:17:26;102127;;;19.81;98.37
62632;BME280;48703;51.248;-0.546;2022-07-06T10:20:29;102121;;;19.86;97.06
62632;BME280;48703;51.248;-0.546;2022-07-06T10:23:30;102122;;;19.96;94.81
62632;BME280;48703;51.248;-0.546;2022-07-06T10:26:32;102124;;;20.09;96.30
62632;BME280;48703;51.248;-0.546;2022-07-06T10:29:34;102127;;;20.22;94.38
62632;BME280;48703;51.248;-0.546;2022-07-06T10:32:36;102122;;;20.26;94.22
62632;BME280;48703;51.248;-0.546;2022-07-06T10:35:38;102117;;;20.35;93.68
62632;BME280;48703;51.248;-0.546;2022-07-06T10:38:40;102111;;;20.41;91.57
62632;BME280;48703;51.248;-0.546;2022-07-06T10:41:42;102112;;;20.47;91.24
62632;BME280;48703;51.248;-0.546;2022-07-06T10:44:44;102109;;;20.55;91.63
62632;BME280;48703;51.248;-0.546;2022-07-06T10:47:45;102110;;;20.67;90.12
62632;BME280;48703;51.248;-0.546;2022-07-06T10:50:49;102106;;;20.73;90.46
62632;BME280;48703;51.248;-0.546;2022-07-06T10:53:55;102098;;;20.70;88.76
62632;BME280;48703;51.248;-0.546;2022-07-06T10:56:51;102091;;;20.80;89.66
62632;BME280;48703;51.248;-0.546;2022-07-06T11:00:00;102087;;;20.89;88.25
62632;BME280;48703;51.248;-0.546;2022-07-06T11:02:55;102089;;;20.90;86.44
62632;BME280;48703;51.248;-0.546;2022-07-06T11:05:57;102087;;;20.97;87.18
62632;BME280;48703;51.248;-0.546;2022-07-06T11:08:59;102089;;;21.00;87.47
62632;BME280;48703;51.248;-0.546;2022-07-06T11:12:07;102093;;;21.02;85.43
62632;BME280;48703;51.248;-0.546;2022-07-06T11:15:03;102087;;;21.09;86.50
62632;BME280;48703;51.248;-0.546;2022-07-06T11:18:12;102082;;;21.24;88.12
62632;BME280;48703;51.248;-0.546;2022-07-06T11:21:22;102080;;;21.36;87.15
62632;BME280;48703;51.248;-0.546;2022-07-06T11:24:09;102082;;;21.39;86.73
62632;BME280;48703;51.248;-0.546;2022-07-06T11:27:10;102081;;;21.45;86.47
62632;BME280;48703;51.248;-0.546;2022-07-06T11:30:12;102078;;;21.45;84.70
62632;BME280;48703;51.248;-0.546;2022-07-06T11:33:27;102075;;;21.46;85.61
62632;BME280;48703;51.248;-0.546;2022-07-06T11:36:16;102076;;;21.47;85.35
62632;BME280;48703;51.248;-0.546;2022-07-06T11:39:18;102073;;;21.51;84.89
62632;BME280;48703;51.248;-0.546;2022-07-06T11:42:20;102071;;;21.51;83.48
62632;BME280;48703;51.248;-0.546;2022-07-06T11:45:25;102070;;;21.56;83.70
62632;BME280;48703;51.248;-0.546;2022-07-06T11:48:23;102070;;;21.64;83.47
62632;BME280;48703;51.248;-0.546;2022-07-06T11:51:26;102074;;;21.71;82.10
62632;BME280;48703;51.248;-0.546;2022-07-06T11:54:27;102069;;;21.69;82.24
62632;BME280;48703;51.248;-0.546;2022-07-06T11:57:29;102071;;;21.68;82.04
62632;BME280;48703;51.248;-0.546;2022-07-06T12:00:31;102074;;;21.70;81.00
62632;BME280;48703;51.248;-0.546;2022-07-06T12:03:33;102074;;;21.73;81.17
62632;BME280;48703;51.248;-0.546;2022-07-06T12:06:35;102073;;;21.70;78.96
62632;BME280;48703;51.248;-0.546;2022-07-06T12:09:37;102073;;;21.67;78.91
62632;BME280;48703;51.248;-0.546;2022-07-06T12:12:39;102072;;;21.61;78.45
62632;BME280;48703;51.248;-0.546;2022-07-06T12:15:41;102068;;;21.56;78.88
62632;BME280;48703;51.248;-0.546;2022-07-06T12:18:43;102071;;;21.56;79.25
62632;BME280;48703;51.248;-0.546;2022-07-06T12:21:45;102071;;;21.56;79.90
62632;BME280;48703;51.248;-0.546;2022-07-06T12:24:46;102073;;;21.56;79.47
62632;BME280;48703;51.248;-0.546;2022-07-06T12:27:48;102076;;;21.57;80.13
62632;BME280;48703;51.248;-0.546;2022-07-06T12:30:50;102076;;;21.54;79.37
62632;BME280;48703;51.248;-0.546;2022-07-06T12:33:55;102072;;;21.53;80.36
62632;BME280;48703;51.248;-0.546;2022-07-06T12:36:55;102067;;;21.51;79.65
62632;BME280;48703;51.248;-0.546;2022-07-06T12:39:56;102065;;;21.52;79.62
62632;BME280;48703;51.248;-0.546;2022-07-06T12:42:58;102070;;;21.53;79.91
62632;BME280;48703;51.248;-0.546;2022-07-06T12:46:00;102064;;;21.57;80.06
62632;BME280;48703;51.248;-0.546;2022-07-06T12:49:03;102057;;;21.62;79.41
62632;BME280;48703;51.248;-0.546;2022-07-06T12:52:08;102057;;;21.62;78.88
62632;BME280;48703;51.248;-0.546;2022-07-06T12:55:06;102057;;;21.63;78.61
62632;BME280;48703;51.248;-0.546;2022-07-06T12:58:12;102059;;;21.60;79.48
62632;BME280;48703;51.248;-0.546;2022-07-06T13:01:14;102067;;;21.58;79.99
62632;BME280;48703;51.248;-0.546;2022-07-06T13:04:11;102071;;;21.58;79.16
62632;BME280;48703;51.248;-0.546;2022-07-06T13:07:17;102062;;;21.58;80.33
62632;BME280;48703;51.248;-0.546;2022-07-06T13:10:15;102061;;;21.60;80.03
62632;BME280;48703;51.248;-0.546;2022-07-06T13:13:17;102065;;;21.55;78.98
62632;BME280;48703;51.248;-0.546;2022-07-06T13:16:19;102063;;;21.51;80.26
62632;BME280;48703;51.248;-0.546;2022-07-06T13:19:21;102062;;;21.50;80.51
62632;BME280;48703;51.248;-0.546;2022-07-06T13:22:22;102058;;;21.49;79.97
62632;BME280;48703;51.248;-0.546;2022-07-06T13:25:24;102053;;;21.51;80.46
62632;BME280;48703;51.248;-0.546;2022-07-06T13:28:26;102050;;;21.55;80.86
62632;BME280;48703;51.248;-0.546;2022-07-06T13:31:28;102051;;;21.59;79.82
62632;BME280;48703;51.248;-0.546;2022-07-06T13:34:30;102050;;;21.63;80.81
62632;BME280;48703;51.248;-0.546;2022-07-06T13:37:32;102044;;;21.70;80.06
62632;BME280;48703;51.248;-0.546;2022-07-06T13:40:34;102044;;;21.75;80.60
62632;BME280;48703;51.248;-0.546;2022-07-06T13:43:36;102042;;;21.87;78.91
62632;BME280;48703;51.248;-0.546;2022-07-06T13:46:38;102043;;;21.97;78.86
62632;BME280;48703;51.248;-0.546;2022-07-06T13:49:40;102039;;;22.04;77.52
62632;BME280;48703;51.248;-0.546;2022-07-06T13:52:41;102036;;;22.13;77.78
62632;BME280;48703;51.248;-0.546;2022-07-06T13:55:43;102036;;;22.18;78.31
62632;BME280;48703;51.248;-0.546;2022-07-06T13:58:45;102026;;;22.20;78.14
62632;BME280;48703;51.248;-0.546;2022-07-06T14:01:47;102018;;;22.15;75.78
62632;BME280;48703;51.248;-0.546;2022-07-06T14:04:49;102016;;;22.13;73.77
62632;BME280;48703;51.248;-0.546;2022-07-06T14:07:51;102013;;;22.12;74.82
62632;BME280;48703;51.248;-0.546;2022-07-06T14:10:53;102009;;;22.24;77.16
62632;BME280;48703;51.248;-0.546;2022-07-06T14:13:55;102005;;;22.46;74.74
62632;BME280;48703;51.248;-0.546;2022-07-06T14:16:57;102005;;;22.63;75.17
62632;BME280;48703;51.248;-0.546;2022-07-06T14:19:59;101999;;;22.77;74.10
62632;BME280;48703;51.248;-0.546;2022-07-06T14:23:01;101993;;;22.85;71.09
62632;BME280;48703;51.248;-0.546;2022-07-06T14:26:02;101993;;;23.00;72.35
62632;BME280;48703;51.248;-0.546;2022-07-06T14:29:04;101994;;;23.06;69.20
62632;BME280;48703;51.248;-0.546;2022-07-06T14:32:06;101993;;;23.02;68.99
62632;BME280;48703;51.248;-0.546;2022-07-06T14:35:08;101989;;;22.99;68.26
62632;BME280;48703;51.248;-0.546;2022-07-06T14:38:10;101984;;;22.92;68.65
62632;BME280;48703;51.248;-0.546;2022-07-06T14:41:12;101985;;;22.92;69.06
62632;BME280;48703;51.248;-0.546;2022-07-06T14:44:14;101987;;;22.88;69.10
62632;BME280;48703;51.248;-0.546;2022-07-06T14:47:16;101991;;;22.85;69.41
62632;BME280;48703;51.248;-0.546;2022-07-06T14:50:18;101988;;;22.79;69.16
62632;BME280;48703;51.248;-0.546;2022-07-06T14:53:20;101979;;;22.74;71.22
62632;BME280;48703;51.248;-0.546;2022-07-06T14:56:21;101976;;;22.77;70.80
62632;BME280;48703;51.248;-0.546;2022-07-06T14:59:23;101970;;;22.76;71.73
62632;BME280;48703;51.248;-0.546;2022-07-06T15:02:25;101970;;;22.85;71.46
62632;BME280;48703;51.248;-0.546;2022-07-06T15:05:27;101969;;;22.95;70.23
62632;BME280;48703;51.248;-0.546;2022-07-06T15:08:29;101967;;;23.08;70.31
62632;BME280;48703;51.248;-0.546;2022-07-06T15:11:31;101962;;;23.36;69.30
62632;BME280;48703;51.248;-0.546;2022-07-06T15:14:33;101961;;;23.51;67.27
62632;BME280;48703;51.248;-0.546;2022-07-06T15:17:35;101957;;;23.77;67.73
62632;BME280;48703;51.248;-0.546;2022-07-06T15:20:37;101957;;;23.95;65.56
62632;BME280;48703;51.248;-0.546;2022-07-06T15:23:39;101954;;;24.04;65.17
62632;BME280;48703;51.248;-0.546;2022-07-06T15:26:41;101950;;;24.27;65.66
62632;BME280;48703;51.248;-0.546;2022-07-06T15:29:42;101938;;;24.45;66.39
62632;BME280;48703;51.248;-0.546;2022-07-06T15:32:44;101931;;;24.59;64.41
62632;BME280;48703;51.248;-0.546;2022-07-06T15:35:46;101933;;;24.63;63.85
62632;BME280;48703;51.248;-0.546;2022-07-06T15:38:49;101927;;;24.57;62.15
62632;BME280;48703;51.248;-0.546;2022-07-06T15:41:50;101919;;;24.58;63.42
62632;BME280;48703;51.248;-0.546;2022-07-06T15:44:52;101916;;;24.46;61.77
62632;BME280;48703;51.248;-0.546;2022-07-06T15:47:54;101914;;;24.44;61.70
62632;BME280;48703;51.248;-0.546;2022-07-06T15:50:56;101906;;;24.36;62.12
62632;BME280;48703;51.248;-0.546;2022-07-06T15:53:58;101902;;;24.43;64.76
62632;BME280;48703;51.248;-0.546;2022-07-06T15:56:59;101901;;;24.45;62.65
62632;BME280;48703;51.248;-0.546;2022-07-06T16:00:02;101901;;;24.44;62.69
62632;BME280;48703;51.248;-0.546;2022-07-06T16:03:03;101898;;;24.33;61.73
62632;BME280;48703;51.248;-0.546;2022-07-06T16:06:06;101901;;;24.23;62.03
62632;BME280;48703;51.248;-0.546;2022-07-06T16:09:07;101896;;;24.07;60.51